createdAt,value
2023-01-23T00:01:06.689Z,5.40
2023-01-23T00:03:34.147Z,5.39
2023-01-23T00:06:06.581Z,5.38
2023-01-23T00:08:33.504Z,5.35
2023-01-23T00:11:00.314Z,5.35
2023-01-23T00:13:26.718Z,5.23
2023-01-23T00:15:53.192Z,5.33
2023-01-23T00:18:19.646Z,5.21
2023-01-23T00:20:46.148Z,5.32
2023-01-23T00:23:12.691Z,5.29
2023-01-23T00:25:39.337Z,5.28
2023-01-23T00:28:06.407Z,5.28
2023-01-23T00:30:33.674Z,5.25
2023-01-23T00:33:00.501Z,5.28
2023-01-23T00:35:26.880Z,5.25
2023-01-23T00:37:53.419Z,5.19
2023-01-23T00:40:20.221Z,5.24
2023-01-23T00:42:46.815Z,5.26
2023-01-23T00:45:13.531Z,5.22
2023-01-23T00:47:39.997Z,5.19
2023-01-23T00:50:06.557Z,5.19
2023-01-23T00:52:32.976Z,5.20
2023-01-23T00:54:59.416Z,5.18
2023-01-23T00:57:25.845Z,5.19
2023-01-23T00:59:52.210Z,5.16
2023-01-23T01:02:18.779Z,5.15
2023-01-23T01:04:45.264Z,5.13
2023-01-23T01:07:11.811Z,5.14
2023-01-23T01:09:38.255Z,5.08
2023-01-23T01:12:04.944Z,5.09
2023-01-23T01:14:31.430Z,5.12
2023-01-23T01:16:58.669Z,5.11
2023-01-23T01:19:25.248Z,5.10
2023-01-23T01:21:51.899Z,5.09
2023-01-23T01:24:18.390Z,5.03
2023-01-23T01:26:44.955Z,5.10
2023-01-23T01:29:11.476Z,5.10
2023-01-23T01:31:38.163Z,5.11
2023-01-23T01:34:04.561Z,5.10
2023-01-23T01:36:31.270Z,5.09
2023-01-23T01:38:57.678Z,5.02
2023-01-23T01:41:24.400Z,5.07
2023-01-23T01:43:53.223Z,5.11
2023-01-23T01:46:30.752Z,5.09
2023-01-23T01:49:03.472Z,5.08
2023-01-23T01:51:51.137Z,5.07
2023-01-23T01:54:36.975Z,5.07
2023-01-23T01:57:32.782Z,4.99
2023-01-23T02:00:04.745Z,4.98
2023-01-23T02:02:45.563Z,4.93
2023-01-23T02:05:19.935Z,4.99
2023-01-23T02:07:54.427Z,4.99
2023-01-23T02:10:22.528Z,4.95
2023-01-23T02:12:51.148Z,4.99
2023-01-23T02:15:20.288Z,5.00
2023-01-23T02:17:48.317Z,4.98
2023-01-23T02:20:25.962Z,4.98
2023-01-23T02:22:58.174Z,4.99
2023-01-23T02:25:37.536Z,4.89
2023-01-23T02:28:04.450Z,5.00
2023-01-23T02:30:31.352Z,5.00
2023-01-23T02:33:31.274Z,5.04
2023-01-23T02:35:59.577Z,5.02
2023-01-23T02:38:31.489Z,5.03
2023-01-23T02:41:01.246Z,5.02
2023-01-23T02:43:34.981Z,5.04
2023-01-23T02:46:11.082Z,5.06
2023-01-23T02:48:40.056Z,4.94
2023-01-23T02:51:07.431Z,4.99
2023-01-23T02:53:34.146Z,5.03
2023-01-23T02:56:00.746Z,5.05
2023-01-23T02:58:45.909Z,5.03
2023-01-23T03:01:12.404Z,4.93
2023-01-23T03:03:42.442Z,4.86
2023-01-23T03:06:09.579Z,4.98
2023-01-23T03:08:36.736Z,4.99
2023-01-23T03:11:04.526Z,4.94
2023-01-23T03:13:31.503Z,5.00
2023-01-23T03:15:58.189Z,4.97
2023-01-23T03:18:27.624Z,5.00
2023-01-23T03:20:54.261Z,4.96
2023-01-23T03:23:21.014Z,4.97
2023-01-23T03:25:49.023Z,4.87
2023-01-23T03:28:33.987Z,4.90
2023-01-23T03:31:00.419Z,4.95
2023-01-23T03:33:26.911Z,4.95
2023-01-23T03:35:53.330Z,4.93
2023-01-23T03:38:19.751Z,4.92
2023-01-23T03:41:09.095Z,4.90
2023-01-23T03:43:35.507Z,4.87
2023-01-23T03:46:02.234Z,4.85
2023-01-23T03:48:28.693Z,4.83
2023-01-23T03:50:55.119Z,4.81
2023-01-23T03:53:21.600Z,4.81
2023-01-23T03:55:48.247Z,4.81
2023-01-23T03:58:14.616Z,4.82
2023-01-23T04:00:41.055Z,4.73
2023-01-23T04:03:09.147Z,4.81
2023-01-23T04:05:35.675Z,4.83
2023-01-23T04:08:02.178Z,4.80
2023-01-23T04:10:28.623Z,4.83
2023-01-23T04:12:55.067Z,4.82
2023-01-23T04:15:21.500Z,4.81
2023-01-23T04:17:47.884Z,4.81
2023-01-23T04:20:15.055Z,4.79
2023-01-23T04:22:41.569Z,4.80
2023-01-23T04:25:08.445Z,4.76
2023-01-23T04:27:34.833Z,4.80
2023-01-23T04:30:01.442Z,4.75
2023-01-23T04:32:27.858Z,4.78
2023-01-23T04:34:54.402Z,4.76
2023-01-23T04:37:21.093Z,4.77
2023-01-23T04:39:47.818Z,4.75
2023-01-23T04:42:14.199Z,4.76
2023-01-23T04:44:40.631Z,4.76
2023-01-23T04:47:07.009Z,4.71
2023-01-23T04:49:33.424Z,4.75
2023-01-23T04:51:59.824Z,4.75
2023-01-23T04:54:26.489Z,4.78
2023-01-23T04:56:54.119Z,4.78
2023-01-23T04:59:21.576Z,4.81
2023-01-23T05:01:48.257Z,4.71
2023-01-23T05:04:14.733Z,4.81
2023-01-23T05:06:41.132Z,4.81
2023-01-23T05:09:07.728Z,4.77
2023-01-23T05:11:34.663Z,4.79
2023-01-23T05:14:01.200Z,4.76
2023-01-23T05:16:27.604Z,4.75
2023-01-23T05:18:54.280Z,4.76
2023-01-23T05:21:20.690Z,4.76
2023-01-23T05:23:47.124Z,4.69
2023-01-23T05:26:13.540Z,4.76
2023-01-23T05:28:40.096Z,4.74
2023-01-23T05:31:06.762Z,4.79
2023-01-23T05:33:33.331Z,4.79
2023-01-23T05:36:00.654Z,4.79
2023-01-23T05:38:27.138Z,4.79
2023-01-23T05:40:54.044Z,4.78
2023-01-23T05:43:20.625Z,4.60
2023-01-23T05:45:47.130Z,4.74
2023-01-23T05:48:13.552Z,4.74
2023-01-23T05:50:40.505Z,4.73
2023-01-23T05:53:07.116Z,4.76
2023-01-23T05:55:33.512Z,4.75
2023-01-23T05:58:00.132Z,4.76
2023-01-23T06:00:26.769Z,4.73
2023-01-23T06:02:53.279Z,4.81
2023-01-23T06:05:20.095Z,4.84
2023-01-23T06:07:46.547Z,4.88
2023-01-23T06:10:12.964Z,4.89
2023-01-23T06:12:39.451Z,4.88
2023-01-23T06:15:06.534Z,4.89
2023-01-23T06:17:32.980Z,4.82
2023-01-23T06:19:59.709Z,4.91
2023-01-23T06:22:26.143Z,4.91
2023-01-23T06:24:52.719Z,4.94
2023-01-23T06:27:19.361Z,4.94
2023-01-23T06:29:45.915Z,4.92
2023-01-23T06:32:12.598Z,4.93
2023-01-23T06:34:39.755Z,4.94
2023-01-23T06:37:06.159Z,4.95
2023-01-23T06:39:34.114Z,4.95
2023-01-23T06:42:00.698Z,4.97
2023-01-23T06:44:27.215Z,4.86
2023-01-23T06:46:53.870Z,4.98
2023-01-23T06:49:20.566Z,4.84
2023-01-23T06:51:47.270Z,4.97
2023-01-23T06:54:13.661Z,4.95
2023-01-23T06:56:40.061Z,4.95
2023-01-23T06:59:06.563Z,4.94
2023-01-23T07:01:33.043Z,4.93
2023-01-23T07:03:59.537Z,4.93
2023-01-23T07:06:26.048Z,4.95
2023-01-23T07:08:52.619Z,4.86
2023-01-23T07:11:19.496Z,4.98
2023-01-23T07:13:45.917Z,4.81
2023-01-23T07:16:12.458Z,4.97
2023-01-23T07:18:39.146Z,4.94
2023-01-23T07:21:06.489Z,4.95
2023-01-23T07:23:33.944Z,4.93
2023-01-23T07:26:07.288Z,4.96
2023-01-23T07:28:33.718Z,4.97
2023-01-23T07:31:00.376Z,4.98
2023-01-23T07:33:26.978Z,4.97
2023-01-23T07:35:53.631Z,4.95
2023-01-23T07:38:20.952Z,4.89
2023-01-23T07:40:47.330Z,4.85
2023-01-23T07:43:13.744Z,4.97
2023-01-23T07:45:40.230Z,5.00
2023-01-23T07:48:06.711Z,5.01
2023-01-23T07:50:33.609Z,5.01
2023-01-23T07:53:00.271Z,4.88
2023-01-23T07:55:26.895Z,5.05
2023-01-23T07:57:53.468Z,5.07
2023-01-23T08:00:22.385Z,5.08
2023-01-23T08:02:51.285Z,5.06
2023-01-23T08:05:17.683Z,5.10
2023-01-23T08:07:44.140Z,5.11
2023-01-23T08:10:11.260Z,5.07
2023-01-23T08:12:37.684Z,5.12
2023-01-23T08:15:04.837Z,4.98
2023-01-23T08:17:31.412Z,5.13
2023-01-23T08:19:57.827Z,5.15
2023-01-23T08:22:24.435Z,5.17
2023-01-23T08:24:50.843Z,5.18
2023-01-23T08:27:17.252Z,5.20
2023-01-23T08:29:43.784Z,5.19
2023-01-23T08:32:10.650Z,5.23
2023-01-23T08:34:37.129Z,5.23
2023-01-23T08:37:04.635Z,5.28
2023-01-23T08:39:31.332Z,5.25
2023-01-23T08:41:57.730Z,5.33
2023-01-23T08:44:24.663Z,5.34
2023-01-23T08:46:51.186Z,5.35
2023-01-23T08:49:20.396Z,5.39
2023-01-23T08:51:46.964Z,5.31
2023-01-23T08:54:13.584Z,5.43
2023-01-23T08:56:41.368Z,5.45
2023-01-23T08:59:08.296Z,5.41
2023-01-23T09:01:34.977Z,5.45
2023-01-23T09:04:01.610Z,5.41
2023-01-23T09:06:28.119Z,5.42
2023-01-23T09:08:54.673Z,5.40
2023-01-23T09:11:22.784Z,5.41
2023-01-23T09:13:50.824Z,5.41
2023-01-23T09:16:18.807Z,5.43
2023-01-23T09:18:45.330Z,5.41
2023-01-23T09:21:16.275Z,5.40
2023-01-23T09:23:43.257Z,5.51
2023-01-23T09:26:12.391Z,5.56
2023-01-23T09:28:42.243Z,5.60
2023-01-23T09:31:12.976Z,5.65
2023-01-23T09:33:40.989Z,5.69
2023-01-23T09:36:08.347Z,5.73
2023-01-23T09:38:34.777Z,5.79
2023-01-23T09:41:09.360Z,5.81
2023-01-23T09:43:45.383Z,5.82
2023-01-23T09:46:37.721Z,5.98
2023-01-23T09:49:24.592Z,5.98
2023-01-23T09:52:11.915Z,6.01
2023-01-23T09:54:46.680Z,6.09
2023-01-23T09:57:25.955Z,6.14
2023-01-23T10:00:03.975Z,6.17
2023-01-23T10:02:30.716Z,6.19
2023-01-23T10:04:59.484Z,6.17
2023-01-23T10:07:31.727Z,6.30
2023-01-23T10:10:17.517Z,6.39
2023-01-23T10:12:52.720Z,6.44
2023-01-23T10:15:42.668Z,6.49
2023-01-23T10:18:21.695Z,6.56
2023-01-23T10:21:03.980Z,6.63
2023-01-23T10:23:36.172Z,6.69
2023-01-23T10:26:04.137Z,6.62
2023-01-23T10:28:38.258Z,6.68
2023-01-23T10:31:18.360Z,6.85
2023-01-23T10:34:08.153Z,7.03
2023-01-23T10:36:58.143Z,6.98
2023-01-23T10:39:33.042Z,6.85
2023-01-23T10:42:02.459Z,7.00
2023-01-23T10:44:29.387Z,7.06
2023-01-23T10:47:02.256Z,7.09
2023-01-23T10:49:32.963Z,7.14
2023-01-23T10:51:59.638Z,7.17
2023-01-23T10:54:33.074Z,7.20
2023-01-23T10:57:03.140Z,7.24
2023-01-23T10:59:37.230Z,7.30
2023-01-23T11:02:12.930Z,7.31
2023-01-23T11:04:41.972Z,7.30
2023-01-23T11:07:23.462Z,7.35
2023-01-23T11:10:00.478Z,7.37
2023-01-23T11:12:32.218Z,7.38
2023-01-23T11:15:26.216Z,7.44
2023-01-23T11:17:54.743Z,7.37
2023-01-23T11:20:26.931Z,7.38
2023-01-23T11:23:08.570Z,7.45
2023-01-23T11:25:43.892Z,7.44
2023-01-23T11:28:35.174Z,7.48
2023-01-23T11:31:16.102Z,7.46
2023-01-23T11:33:54.893Z,7.41
2023-01-23T11:36:33.212Z,7.42
2023-01-23T11:39:16.681Z,7.43
2023-01-23T11:41:45.231Z,7.36
2023-01-23T11:44:18.716Z,7.27
2023-01-23T11:47:14.870Z,7.41
2023-01-23T11:50:02.492Z,7.37
2023-01-23T11:52:36.504Z,7.37
2023-01-23T11:55:30.470Z,7.34
2023-01-23T11:58:14.972Z,7.34
2023-01-23T12:00:51.225Z,7.30
2023-01-23T12:03:36.624Z,7.35
2023-01-23T12:06:28.887Z,7.33
2023-01-23T12:09:33.730Z,7.30
2023-01-23T12:12:21.236Z,7.34
2023-01-23T12:15:14.808Z,7.28
2023-01-23T12:17:47.058Z,7.27
2023-01-23T12:20:28.635Z,7.26
2023-01-23T12:23:17.092Z,7.26
2023-01-23T12:25:53.579Z,7.14
2023-01-23T12:28:29.079Z,7.27
2023-01-23T12:31:00.948Z,7.25
2023-01-23T12:33:50.301Z,7.27
2023-01-23T12:37:16.612Z,7.30
2023-01-23T12:40:12.983Z,7.32
2023-01-23T12:43:10.196Z,7.33
2023-01-23T12:45:41.576Z,7.23
2023-01-23T12:48:16.061Z,7.29
2023-01-23T12:50:48.565Z,7.29
2023-01-23T12:53:22.036Z,7.31
2023-01-23T12:56:03.823Z,7.31
2023-01-23T12:58:35.172Z,7.32
2023-01-23T13:01:08.039Z,7.34
2023-01-23T13:03:46.444Z,7.33
2023-01-23T13:06:34.762Z,7.36
2023-01-23T13:09:19.395Z,7.39
2023-01-23T13:12:11.663Z,7.38
2023-01-23T13:15:06.491Z,7.35
2023-01-23T13:17:49.911Z,7.41
2023-01-23T13:21:13.365Z,7.51
2023-01-23T13:23:40.067Z,7.45
2023-01-23T13:26:26.586Z,7.45
2023-01-23T13:28:58.548Z,7.47
2023-01-23T13:31:33.934Z,7.49
2023-01-23T13:34:15.043Z,7.50
2023-01-23T13:36:43.832Z,7.50
2023-01-23T13:39:13.273Z,7.51
2023-01-23T13:41:39.804Z,7.51
2023-01-23T13:44:35.836Z,7.51
2023-01-23T14:21:55.102Z,7.08
2023-01-23T14:24:29.149Z,7.04
2023-01-23T14:27:08.841Z,7.06
2023-01-23T14:29:36.174Z,7.16
2023-01-23T14:32:02.791Z,7.01
2023-01-23T14:34:29.347Z,6.84
2023-01-23T14:37:04.429Z,6.98
2023-01-23T14:39:34.240Z,6.96
2023-01-23T14:42:03.812Z,6.95
2023-01-23T14:44:34.667Z,6.95
2023-01-23T14:47:03.668Z,7.06
2023-01-23T14:49:34.142Z,6.95
2023-01-23T14:52:03.869Z,6.93
2023-01-23T14:54:33.259Z,6.89
2023-01-23T14:57:05.771Z,6.84
2023-01-23T14:59:41.723Z,6.82
2023-01-23T15:02:31.063Z,6.88
2023-01-23T15:05:12.628Z,6.86
2023-01-23T15:07:43.636Z,6.72
2023-01-23T15:10:30.716Z,6.85
2023-01-23T15:13:05.150Z,6.81
2023-01-23T15:15:34.448Z,6.80
2023-01-23T15:18:02.046Z,6.65
2023-01-23T15:20:43.365Z,6.74
2023-01-23T15:23:18.863Z,6.77
2023-01-23T15:25:54.639Z,6.66
2023-01-23T15:28:31.663Z,6.74
2023-01-23T15:30:58.382Z,6.69
2023-01-23T15:33:28.709Z,6.69
2023-01-23T15:36:02.748Z,6.80
2023-01-23T15:38:29.714Z,6.67
2023-01-23T15:40:57.009Z,6.62
2023-01-23T15:43:23.474Z,6.57
2023-01-23T15:45:50.130Z,6.45
2023-01-23T15:48:16.550Z,6.54
2023-01-23T15:50:42.967Z,6.47
2023-01-23T15:53:14.239Z,6.38
2023-01-23T15:55:42.538Z,6.48
2023-01-23T15:58:14.933Z,6.47
2023-01-23T16:00:42.363Z,6.44
2023-01-23T16:03:08.949Z,6.37
2023-01-23T16:05:37.302Z,6.43
2023-01-23T16:08:05.794Z,6.40
2023-01-23T16:10:38.410Z,6.39
2023-01-23T16:13:05.198Z,6.23
2023-01-23T16:15:34.054Z,6.34
2023-01-23T16:18:03.114Z,6.22
2023-01-23T16:20:38.485Z,6.35
2023-01-23T16:23:15.087Z,6.33
2023-01-23T16:25:45.052Z,6.32
2023-01-23T16:28:16.185Z,6.43
2023-01-23T16:30:43.111Z,6.45
2023-01-23T16:33:09.988Z,6.21
2023-01-23T16:35:37.334Z,6.19
2023-01-23T16:38:04.776Z,6.19
2023-01-23T16:40:32.072Z,6.26
2023-01-23T16:43:00.202Z,6.03
2023-01-23T16:45:31.807Z,6.24
2023-01-23T16:47:58.893Z,6.20
2023-01-23T16:50:57.446Z,6.23
2023-01-23T16:53:27.220Z,6.24
2023-01-23T16:55:55.907Z,5.95
2023-01-23T16:58:32.558Z,5.61
2023-01-23T17:01:03.804Z,5.84
2023-01-23T17:03:34.387Z,6.21
2023-01-23T17:06:01.420Z,6.19
2023-01-23T17:08:27.966Z,6.20
2023-01-23T17:10:58.463Z,6.18
2023-01-23T17:13:26.542Z,5.97
2023-01-23T17:15:55.652Z,5.58
2023-01-23T17:18:27.385Z,6.06
2023-01-23T17:20:55.145Z,6.00
2023-01-23T17:23:23.070Z,5.62
2023-01-23T17:26:00.511Z,6.10
2023-01-23T17:28:28.098Z,6.19
2023-01-23T17:30:55.431Z,6.19
2023-01-23T17:33:26.259Z,6.19
2023-01-23T17:35:54.147Z,6.17
2023-01-23T17:38:21.929Z,6.18
2023-01-23T17:40:48.722Z,6.04
2023-01-23T17:43:16.493Z,6.18
2023-01-23T17:45:45.845Z,6.17
2023-01-23T17:48:14.829Z,6.17
2023-01-23T17:50:46.531Z,6.18
2023-01-23T17:53:17.374Z,6.17
2023-01-23T17:55:47.898Z,6.16
2023-01-23T17:58:15.232Z,6.00
2023-01-23T18:00:43.952Z,6.16
2023-01-23T18:03:16.998Z,6.16
2023-01-23T18:05:43.613Z,6.12
2023-01-23T18:08:16.912Z,6.15
2023-01-23T18:10:45.234Z,6.14
2023-01-23T18:13:47.030Z,6.17
2023-01-23T18:16:22.691Z,6.14
2023-01-23T18:18:58.593Z,6.11
2023-01-23T18:21:25.595Z,6.08
2023-01-23T18:23:52.290Z,6.08
2023-01-23T18:26:32.554Z,6.07
2023-01-23T18:29:12.509Z,6.08
2023-01-23T18:31:41.867Z,6.07
2023-01-23T18:34:24.250Z,6.08
2023-01-23T18:37:08.305Z,6.07
2023-01-23T18:40:00.145Z,6.06
2023-01-23T18:42:45.730Z,6.06
2023-01-23T18:45:20.729Z,6.06
2023-01-23T18:47:53.430Z,6.05
2023-01-23T18:50:22.902Z,6.03
2023-01-23T18:53:17.489Z,6.09
2023-01-23T18:56:22.320Z,6.08
2023-01-23T18:59:12.131Z,6.07
2023-01-23T19:01:41.978Z,6.17
2023-01-23T19:04:15.823Z,6.05
2023-01-23T19:06:42.542Z,6.04
2023-01-23T19:09:19.240Z,6.05
2023-01-23T19:12:11.632Z,6.05
2023-01-23T19:15:05.521Z,6.06
2023-01-23T19:18:15.007Z,6.07
2023-01-23T19:20:44.394Z,6.04
2023-01-23T19:23:30.505Z,6.05
2023-01-23T19:25:57.295Z,5.98
2023-01-23T19:28:24.233Z,5.98
2023-01-23T19:30:50.833Z,6.00
2023-01-23T19:33:18.700Z,6.00
2023-01-23T19:35:46.695Z,5.99
2023-01-23T19:38:15.119Z,5.97
2023-01-23T19:40:42.471Z,5.97
2023-01-23T19:43:15.644Z,5.99
2023-01-23T19:45:43.359Z,5.95
2023-01-23T19:48:10.628Z,5.98
2023-01-23T19:50:37.767Z,5.99
2023-01-23T19:53:04.580Z,5.99
2023-01-23T19:55:34.293Z,5.99
2023-01-23T19:58:00.997Z,5.96
2023-01-23T20:00:30.787Z,5.95
2023-01-23T20:02:58.107Z,5.98
2023-01-23T20:05:25.544Z,5.86
2023-01-23T20:07:53.808Z,5.82
2023-01-23T20:10:20.587Z,5.99
2023-01-23T20:12:54.586Z,5.99
2023-01-23T20:15:24.098Z,5.99
2023-01-23T20:17:52.265Z,5.84
2023-01-23T20:20:20.256Z,5.99
2023-01-23T20:22:47.040Z,5.98
2023-01-23T20:25:16.163Z,5.98
2023-01-23T20:27:43.410Z,5.96
2023-01-23T20:30:20.423Z,6.00
2023-01-23T20:32:47.069Z,5.98
2023-01-23T20:35:13.631Z,5.99
2023-01-23T20:37:40.186Z,5.98
2023-01-23T20:40:11.422Z,5.98
2023-01-23T20:42:39.138Z,5.98
2023-01-23T20:45:06.830Z,5.98
2023-01-23T20:47:35.922Z,5.94
2023-01-23T20:50:02.448Z,5.98
2023-01-23T20:52:47.554Z,5.98
2023-01-23T20:55:14.032Z,5.96
2023-01-23T20:57:59.209Z,5.97
2023-01-23T21:00:25.975Z,5.96
2023-01-23T21:02:53.291Z,5.96
2023-01-23T21:05:19.987Z,5.95
2023-01-23T21:07:46.714Z,5.95
2023-01-23T21:10:13.139Z,5.93
2023-01-23T21:12:39.573Z,5.93
2023-01-23T21:15:06.560Z,5.94
2023-01-23T21:17:33.177Z,5.96
2023-01-23T21:19:59.564Z,5.96
2023-01-23T21:22:26.010Z,5.80
2023-01-23T21:24:52.429Z,5.95
2023-01-23T21:27:20.914Z,5.90
2023-01-23T21:29:47.749Z,5.95
2023-01-23T21:32:14.234Z,5.94
2023-01-23T21:34:40.899Z,5.95
2023-01-23T21:37:10.817Z,5.96
2023-01-23T21:39:38.355Z,5.95
2023-01-23T21:42:04.846Z,5.91
2023-01-23T21:44:31.985Z,5.95
2023-01-23T21:46:59.834Z,5.95
2023-01-23T21:49:26.523Z,5.95
2023-01-23T21:51:53.197Z,5.92
2023-01-23T21:54:19.735Z,5.93
2023-01-23T21:56:46.106Z,5.96
2023-01-23T21:59:12.567Z,5.96
2023-01-23T22:01:46.778Z,5.93
2023-01-23T22:04:16.593Z,5.82
2023-01-23T22:06:44.226Z,5.96
2023-01-23T22:09:15.440Z,5.96
2023-01-23T22:11:42.297Z,5.96
2023-01-23T22:14:08.977Z,5.82
2023-01-23T22:16:47.859Z,5.93
2023-01-23T22:19:16.928Z,5.97
2023-01-23T22:21:44.273Z,5.96
2023-01-23T22:24:10.754Z,5.95
2023-01-23T22:26:37.499Z,5.92
2023-01-23T22:29:03.942Z,5.95
2023-01-23T22:31:30.478Z,5.94
2023-01-23T22:33:57.039Z,5.95
2023-01-23T22:36:23.502Z,5.94
2023-01-23T22:38:51.872Z,5.91
2023-01-23T22:41:18.909Z,5.94
2023-01-23T22:43:45.319Z,5.91
2023-01-23T22:46:18.941Z,5.96
2023-01-23T22:48:45.528Z,5.96
2023-01-23T22:51:16.006Z,5.96
2023-01-23T22:53:42.664Z,5.94
2023-01-23T22:56:09.928Z,5.95
2023-01-23T22:58:37.341Z,5.95
2023-01-23T23:01:04.643Z,5.95
2023-01-23T23:03:33.179Z,5.94
2023-01-23T23:06:02.808Z,5.94
2023-01-23T23:08:29.569Z,5.94
2023-01-23T23:11:10.048Z,5.92
2023-01-23T23:13:38.750Z,5.93
2023-01-23T23:16:08.409Z,5.91
2023-01-23T23:18:37.446Z,5.78
2023-01-23T23:21:07.994Z,5.92
2023-01-23T23:23:34.910Z,5.92
2023-01-23T23:26:01.653Z,5.91
2023-01-23T23:28:28.810Z,5.90
2023-01-23T23:30:55.293Z,5.90
2023-01-23T23:33:22.262Z,5.89
2023-01-23T23:35:48.719Z,5.88
2023-01-23T23:38:15.765Z,5.88
2023-01-23T23:40:42.272Z,5.87
2023-01-23T23:43:09.710Z,5.86
2023-01-23T23:45:36.391Z,5.83
2023-01-23T23:48:02.931Z,5.86
2023-01-23T23:50:29.985Z,5.75
2023-01-23T23:52:56.393Z,5.84
2023-01-23T23:55:23.226Z,5.84
2023-01-23T23:57:49.746Z,5.84
